Time;durP1;ratioP1;P1;durP2;ratioP2;P2;SDS_P1;SDS_P2;PMS_P1;PMS_P2;Temp;Humidity;BMP_temperature;BMP_pressure;BME280_temperature;BME280_humidity;BME280_pressure;Samples;Min_cycle;Max_cycle;Signal;HPM_P1;HPM_P2
2021/08/14 00:00:06;;;;;;;13.15;6.00;;;;;;;23.47;49.47;93476.47;2071643;69;20136;-76
2021/08/14 00:02:32;;;;;;;12.90;5.88;;;;;;;23.56;48.31;93473.09;2071601;69;20230;-77
2021/08/14 00:04:58;;;;;;;12.88;5.68;;;;;;;23.34;49.13;93481.16;2071412;69;20596;-74
2021/08/14 00:07:23;;;;;;;15.07;5.70;;;;;;;23.73;48.54;93482.13;2071697;69;20628;-74
2021/08/14 00:09:49;;;;;;;15.88;5.65;;;;;;;23.88;47.49;93474.59;2071606;69;20144;-74
2021/08/14 00:12:15;;;;;;;20.13;5.75;;;;;;;23.70;47.60;93474.91;2071657;69;20152;-75
2021/08/14 00:14:41;;;;;;;13.70;5.85;;;;;;;23.39;47.96;93473.38;2071199;69;20214;-75
2021/08/14 00:17:06;;;;;;;24.08;5.85;;;;;;;23.51;47.93;93468.69;2071610;69;20233;-74
2021/08/14 00:19:32;;;;;;;16.23;5.80;;;;;;;23.42;47.86;93469.88;2071430;69;20655;-75
2021/08/14 00:21:58;;;;;;;14.82;6.10;;;;;;;23.59;47.63;93479.63;2071725;69;20140;-75
2021/08/14 00:24:23;;;;;;;19.98;5.72;;;;;;;23.27;50.25;93474.50;2071585;69;20668;-76
2021/08/14 00:26:51;;;;;;;16.27;5.47;;;;;;;23.59;47.79;93468.88;2071557;69;20145;-74
2021/08/14 00:29:17;;;;;;;18.52;6.10;;;;;;;23.71;48.09;93471.31;2071616;69;20140;-75
2021/08/14 00:31:43;;;;;;;14.20;5.85;;;;;;;23.29;49.21;93468.09;2071666;69;20619;-75
2021/08/14 00:34:09;;;;;;;18.45;5.57;;;;;;;23.51;47.89;93468.69;2071509;69;20148;-74
2021/08/14 00:36:35;;;;;;;14.38;5.32;;;;;;;23.31;48.28;93465.28;2071656;69;20147;-74
2021/08/14 00:39:00;;;;;;;15.93;6.05;;;;;;;23.13;48.66;93465.53;2071572;69;20140;-75
2021/08/14 00:41:28;;;;;;;15.27;5.90;;;;;;;23.13;48.78;93461.94;2071638;69;20144;-75
2021/08/14 00:43:54;;;;;;;14.32;5.70;;;;;;;23.23;48.75;93465.06;2071905;69;20187;-75
2021/08/14 00:46:20;;;;;;;13.32;5.95;;;;;;;23.23;48.50;93462.94;2071805;69;20227;-75
2021/08/14 00:48:46;;;;;;;15.57;6.15;;;;;;;23.07;50.07;93459.66;2071632;69;20152;-74
2021/08/14 00:51:12;;;;;;;15.90;5.80;;;;;;;22.85;52.67;93459.75;2071805;69;20152;-74
2021/08/14 00:53:37;;;;;;;14.43;5.68;;;;;;;23.13;50.71;93454.03;2071450;69;20175;-75
2021/08/14 00:56:05;;;;;;;12.00;6.00;;;;;;;23.00;51.32;93455.13;2068365;69;20196;-74
2021/08/14 00:58:32;;;;;;;17.40;6.38;;;;;;;23.18;49.86;93452.75;2071378;69;20256;-75
2021/08/14 01:00:58;;;;;;;13.27;5.85;;;;;;;23.07;49.04;93453.91;2071383;69;20152;-74
2021/08/14 01:03:27;;;;;;;14.25;5.80;;;;;;;23.38;48.31;93455.41;2071245;69;20254;-74
2021/08/14 01:05:54;;;;;;;15.10;5.85;;;;;;;23.17;48.65;93459.16;2071622;69;20144;-74
2021/08/14 01:08:19;;;;;;;17.60;6.18;;;;;;;23.39;48.01;93459.75;2071693;69;20152;-74
2021/08/14 01:10:45;;;;;;;20.60;6.30;;;;;;;23.08;48.79;93463.97;2071734;69;20155;-74
2021/08/14 01:13:11;;;;;;;19.45;6.53;;;;;;;23.21;47.67;93462.88;2071719;69;20152;-73
2021/08/14 01:15:49;;;;;;;16.30;5.88;;;;;;;22.91;49.28;93462.06;2071648;69;20481;-74
2021/08/14 01:18:16;;;;;;;15.43;6.03;;;;;;;23.15;48.98;93459.13;2071620;69;20140;-74
2021/08/14 01:20:44;;;;;;;16.00;6.38;;;;;;;23.05;49.49;93460.31;2068356;69;20148;-74
2021/08/14 01:23:11;;;;;;;15.98;6.00;;;;;;;22.99;50.21;93456.56;2071670;69;20140;-73
2021/08/14 01:25:39;;;;;;;17.95;6.18;;;;;;;23.22;49.06;93455.72;2071359;69;20630;-74
2021/08/14 01:28:07;;;;;;;15.32;5.68;;;;;;;23.04;49.14;93461.72;2071610;69;20624;-74
2021/08/14 01:30:32;;;;;;;17.30;6.47;;;;;;;22.98;49.60;93457.97;2071047;69;20155;-75
2021/08/14 01:32:58;;;;;;;17.30;6.40;;;;;;;22.97;49.16;93456.50;2069671;69;20148;-74
2021/08/14 01:35:24;;;;;;;19.02;5.90;;;;;;;22.96;49.79;93464.41;2070241;69;20140;-75
2021/08/14 01:37:50;;;;;;;15.18;6.03;;;;;;;22.90;50.10;93454.88;2071123;69;20212;-75
2021/08/14 01:40:16;;;;;;;18.17;6.20;;;;;;;22.88;50.81;93461.28;2071407;69;20140;-75
2021/08/14 01:42:42;;;;;;;18.50;6.43;;;;;;;22.68;51.13;93457.84;2071250;69;20504;-74
2021/08/14 01:45:08;;;;;;;17.08;6.25;;;;;;;22.83;50.50;93453.97;2071540;69;20615;-75
2021/08/14 01:47:34;;;;;;;16.10;6.05;;;;;;;23.10;49.03;93449.69;2067898;69;20148;-75
2021/08/14 01:49:59;;;;;;;16.52;6.40;;;;;;;22.78;49.57;93461.72;2071411;69;20144;-76
2021/08/14 01:52:28;;;;;;;14.32;6.15;;;;;;;22.75;50.49;93451.59;2067595;69;20596;-76
2021/08/14 01:54:54;;;;;;;15.23;5.85;;;;;;;22.75;49.14;93453.75;2071661;69;20179;-76
2021/08/14 01:57:20;;;;;;;17.27;6.50;;;;;;;22.70;50.42;93455.03;2071568;69;20221;-75
2021/08/14 01:59:46;;;;;;;18.38;6.57;;;;;;;22.73;49.61;93457.28;2069260;69;20634;-76
2021/08/14 02:02:13;;;;;;;12.57;5.55;;;;;;;22.80;50.29;93449.56;2068220;69;20183;-74
2021/08/14 02:04:39;;;;;;;18.83;5.97;;;;;;;22.69;49.81;93434.22;2068062;69;20176;-76
2021/08/14 02:07:05;;;;;;;11.95;5.65;;;;;;;22.80;50.46;93450.28;2068105;69;20229;-75
2021/08/14 02:09:31;;;;;;;10.02;5.47;;;;;;;22.61;51.30;93442.59;2068268;69;20599;-76
2021/08/14 02:11:56;;;;;;;16.98;6.50;;;;;;;22.56;51.53;93444.63;2068243;69;20141;-76
2021/08/14 02:14:22;;;;;;;17.33;6.22;;;;;;;22.52;52.63;93458.13;2068288;69;20606;-76
2021/08/14 02:16:47;;;;;;;14.55;6.35;;;;;;;22.57;51.15;93446.06;2068501;69;20160;-76
2021/08/14 02:19:14;;;;;;;17.90;6.47;;;;;;;22.29;51.64;93440.28;2070842;69;20667;-77
2021/08/14 02:21:39;;;;;;;16.40;6.22;;;;;;;22.24;51.03;93443.69;2071563;69;20598;-77
2021/08/14 02:24:05;;;;;;;17.50;6.50;;;;;;;22.33;50.60;93451.88;2071584;69;20147;-76
2021/08/14 02:26:30;;;;;;;15.15;6.05;;;;;;;22.62;50.19;93438.31;2071499;69;20476;-77
2021/08/14 02:28:56;;;;;;;15.38;6.20;;;;;;;22.31;51.72;93439.59;2071557;69;20272;-77
2021/08/14 02:31:22;;;;;;;14.75;6.10;;;;;;;22.40;51.31;93441.28;2071521;69;20491;-77
2021/08/14 02:33:47;;;;;;;20.10;5.95;;;;;;;22.43;52.21;93442.09;2071418;69;20144;-76
2021/08/14 02:36:13;;;;;;;14.10;6.20;;;;;;;22.46;50.60;93443.63;2071595;69;20192;-76
2021/08/14 02:38:40;;;;;;;12.05;5.93;;;;;;;22.55;50.25;93440.28;2068252;69;20140;-77
2021/08/14 02:41:07;;;;;;;14.43;6.25;;;;;;;22.25;53.27;93436.56;2071587;69;20147;-76
2021/08/14 02:43:37;;;;;;;17.08;6.50;;;;;;;21.92;53.24;93440.56;2071661;69;20243;-76
2021/08/14 02:46:04;;;;;;;16.98;6.85;;;;;;;21.96;53.00;93443.56;2071528;69;20144;-76
2021/08/14 02:48:31;;;;;;;19.92;6.97;;;;;;;22.22;51.38;93437.88;2071382;69;20144;-76
2021/08/14 02:50:59;;;;;;;19.25;6.72;;;;;;;22.33;50.89;93439.66;2071512;69;20530;-76
2021/08/14 02:53:24;;;;;;;16.67;6.57;;;;;;;22.08;52.21;93438.94;2068139;69;20159;-76
2021/08/14 02:55:50;;;;;;;15.85;6.13;;;;;;;22.03;53.75;93431.59;2071502;69;20152;-76
2021/08/14 02:58:15;;;;;;;18.52;6.65;;;;;;;;;;2071506;69;20151;-76
2021/08/14 03:00:41;;;;;;;17.17;6.65;;;;;;;21.72;54.37;93432.09;2071235;69;20253;-76
2021/08/14 03:03:07;;;;;;;18.13;6.60;;;;;;;21.93;53.49;93424.84;2071444;69;20600;-76
2021/08/14 03:05:32;;;;;;;18.05;6.15;;;;;;;21.82;52.71;93427.41;2071939;69;20152;-77
2021/08/14 03:07:58;;;;;;;18.75;6.05;;;;;;;21.79;54.53;93434.47;2071970;69;20231;-77
2021/08/14 03:10:24;;;;;;;16.33;6.60;;;;;;;21.87;54.78;93431.13;2071968;69;20172;-76
2021/08/14 03:12:50;;;;;;;13.75;6.70;;;;;;;21.74;54.79;93432.88;2068673;69;20133;-77
2021/08/14 03:15:16;;;;;;;14.93;6.40;;;;;;;21.81;55.05;93428.06;2071975;69;20619;-78
2021/08/14 03:17:42;;;;;;;17.30;6.07;;;;;;;22.13;53.72;93428.34;2071984;69;20244;-76
2021/08/14 03:20:09;;;;;;;21.33;6.43;;;;;;;22.14;52.72;93424.06;2071861;69;20161;-76
2021/08/14 03:22:35;;;;;;;13.70;6.28;;;;;;;21.97;53.77;93422.09;2071963;69;20145;-76
2021/08/14 03:25:00;;;;;;;20.95;6.68;;;;;;;21.30;56.12;93427.19;2072084;69;20159;-77
2021/08/14 03:27:26;;;;;;;16.08;6.22;;;;;;;21.50;55.81;93429.25;2068612;69;20182;-76
2021/08/14 03:29:52;;;;;;;12.95;6.32;;;;;;;21.67;54.58;93421.88;2071708;69;20175;-76
2021/08/14 03:32:19;;;;;;;16.70;6.50;;;;;;;21.85;52.77;93424.59;2071954;69;20569;-77
2021/08/14 03:34:45;;;;;;;17.95;6.20;;;;;;;21.68;53.65;93412.63;2068457;69;20630;-76
2021/08/14 03:37:10;;;;;;;18.92;6.63;;;;;;;21.30;54.90;93424.31;2071919;69;20132;-77
2021/08/14 03:39:36;;;;;;;15.60;6.32;;;;;;;21.38;54.73;93428.88;2071877;69;20180;-76
2021/08/14 03:42:02;;;;;;;16.63;6.78;;;;;;;21.52;54.62;93432.91;2071906;69;20145;-76
2021/08/14 03:44:27;;;;;;;14.68;6.47;;;;;;;21.71;53.20;93427.75;2071920;69;20152;-77
2021/08/14 03:46:53;;;;;;;18.98;7.00;;;;;;;21.55;54.38;93431.56;2072029;69;20543;-76
2021/08/14 03:49:19;;;;;;;18.17;6.90;;;;;;;21.44;53.02;93434.78;2071994;69;20236;-76
2021/08/14 03:51:45;;;;;;;17.02;6.70;;;;;;;21.43;53.80;93431.19;2071989;69;20149;-76
2021/08/14 03:54:11;;;;;;;16.48;6.47;;;;;;;21.35;54.40;93430.94;2071853;69;20596;-76
2021/08/14 03:56:36;;;;;;;19.02;6.70;;;;;;;21.48;53.94;93440.63;2071909;69;20197;-77
2021/08/14 03:59:02;;;;;;;17.98;6.65;;;;;;;21.40;54.14;93437.53;2071931;69;20156;-76
2021/08/14 04:01:28;;;;;;;17.23;6.72;;;;;;;21.39;54.90;93436.03;2071846;69;20160;-77
2021/08/14 04:03:53;;;;;;;20.15;7.13;;;;;;;21.12;56.20;93449.50;2071798;69;20171;-76
2021/08/14 04:06:19;;;;;;;17.95;6.95;;;;;;;21.21;56.49;93436.91;2071899;69;20148;-75
2021/08/14 04:08:44;;;;;;;16.13;5.88;;;;;;;21.23;56.74;93441.97;2071991;69;20143;-76
2021/08/14 04:11:10;;;;;;;17.63;6.60;;;;;;;21.02;57.01;93444.13;2071929;69;20276;-76
2021/08/14 04:13:36;;;;;;;17.45;6.43;;;;;;;21.15;54.75;93445.28;2068473;69;20483;-76
2021/08/14 04:16:02;;;;;;;15.48;7.22;;;;;;;20.99;56.29;93448.34;2071840;69;20213;-77
2021/08/14 04:18:28;;;;;;;20.15;6.93;;;;;;;21.05;55.57;93442.09;2071754;69;20586;-76
2021/08/14 04:20:54;;;;;;;22.58;6.90;;;;;;;20.92;57.12;93457.38;2068546;69;20167;-77
2021/08/14 04:23:20;;;;;;;18.38;6.60;;;;;;;20.75;58.14;93450.34;2071858;69;20156;-76
2021/08/14 04:25:46;;;;;;;18.60;6.75;;;;;;;20.94;56.23;93460.31;2071925;69;20659;-76
2021/08/14 04:28:11;;;;;;;19.17;6.80;;;;;;;21.05;56.46;93462.13;2071856;69;20137;-76
2021/08/14 04:30:37;;;;;;;19.00;6.90;;;;;;;21.05;56.31;93457.13;2071912;69;20144;-76
2021/08/14 04:33:03;;;;;;;16.23;7.30;;;;;;;20.97;56.25;93456.13;2071935;69;20498;-76
2021/08/14 04:35:28;;;;;;;17.98;6.78;;;;;;;20.96;56.97;93457.53;2071704;69;20203;-77
2021/08/14 04:37:54;;;;;;;14.18;6.53;;;;;;;21.14;55.89;93454.53;2071813;69;20255;-75
2021/08/14 04:40:20;;;;;;;21.90;6.90;;;;;;;20.66;57.73;93457.19;2071799;69;20152;-76
2021/08/14 04:42:48;;;;;;;23.60;7.20;;;;;;;20.57;57.56;93459.03;2071808;69;20256;-76
2021/08/14 04:45:14;;;;;;;18.52;6.45;;;;;;;20.56;58.62;93466.13;2071784;69;20226;-76
2021/08/14 04:47:40;;;;;;;17.77;7.25;;;;;;;20.75;57.22;93471.09;2071938;69;20214;-76
2021/08/14 04:50:08;;;;;;;16.83;6.68;;;;;;;20.75;57.37;93453.94;2068356;69;20163;-76
2021/08/14 04:52:34;;;;;;;17.40;6.57;;;;;;;20.88;56.75;93468.69;2071812;69;20249;-76
2021/08/14 04:54:59;;;;;;;20.25;7.10;;;;;;;20.37;59.10;93469.72;2071754;69;20148;-76
2021/08/14 04:57:25;;;;;;;22.67;6.78;;;;;;;20.61;58.47;93470.59;2071653;69;20175;-76
2021/08/14 04:59:52;;;;;;;16.45;7.65;;;;;;;20.59;59.35;93475.53;2071772;69;20158;-76
2021/08/14 05:02:19;;;;;;;17.88;6.93;;;;;;;20.76;58.23;93474.72;2071503;69;20136;-75
2021/08/14 05:04:45;;;;;;;17.55;7.43;;;;;;;20.77;58.12;93476.19;2071710;69;20153;-75
2021/08/14 05:07:11;;;;;;;23.00;7.50;;;;;;;20.90;56.29;93468.75;2071861;69;20180;-75
2021/08/14 05:09:38;;;;;;;27.33;7.55;;;;;;;20.83;57.77;93476.38;2071867;69;20247;-76
2021/08/14 05:12:04;;;;;;;15.25;6.95;;;;;;;20.87;56.68;93481.53;2071764;69;20344;-76
2021/08/14 05:14:30;;;;;;;19.35;6.95;;;;;;;20.82;55.63;93480.66;2071738;69;20179;-77
2021/08/14 05:16:56;;;;;;;23.10;7.60;;;;;;;20.94;56.47;93477.50;2065759;69;20575;-76
2021/08/14 05:19:21;;;;;;;17.50;7.03;;;;;;;20.89;56.62;93476.63;2071613;69;20600;-77
2021/08/14 05:21:47;;;;;;;15.05;6.68;;;;;;;20.80;58.83;93478.47;2071745;69;20148;-77
2021/08/14 05:24:14;;;;;;;21.83;6.75;;;;;;;21.11;55.00;93482.34;2071722;69;20155;-77
2021/08/14 05:26:42;;;;;;;23.25;7.05;;;;;;;20.94;56.15;93483.94;2071565;69;20156;-77
2021/08/14 05:29:08;;;;;;;17.95;7.10;;;;;;;20.95;57.40;93490.41;2071723;69;20219;-77
2021/08/14 05:31:35;;;;;;;18.70;7.47;;;;;;;20.61;58.57;93484.19;2071676;69;20168;-77
2021/08/14 05:34:04;;;;;;;20.55;7.18;;;;;;;20.75;57.19;93490.41;2071573;69;20160;-77
2021/08/14 05:36:33;;;;;;;17.88;7.32;;;;;;;20.81;56.48;93485.66;2071680;69;20156;-77
2021/08/14 05:39:01;;;;;;;16.52;7.25;;;;;;;20.81;57.70;93491.38;2071536;69;20223;-76
2021/08/14 05:41:27;;;;;;;16.67;6.88;;;;;;;20.96;58.09;93500.44;2068239;69;20152;-76
2021/08/14 05:43:53;;;;;;;18.58;6.75;;;;;;;20.93;58.52;93501.75;2071738;69;20218;-75
2021/08/14 05:46:18;;;;;;;23.25;7.50;;;;;;;20.92;57.04;93497.44;2068360;69;20140;-77
2021/08/14 05:48:44;;;;;;;23.02;7.70;;;;;;;21.03;57.17;93502.13;2071532;69;20629;-76
2021/08/14 05:51:11;;;;;;;20.27;8.27;;;;;;;20.96;57.16;93501.19;2071651;69;20148;-76
2021/08/14 05:53:37;;;;;;;16.50;7.70;;;;;;;21.05;58.14;93497.19;2071586;69;20179;-76
2021/08/14 05:56:03;;;;;;;19.75;7.40;;;;;;;21.19;57.22;93502.69;2071661;69;20597;-76
2021/08/14 05:58:28;;;;;;;19.13;6.65;;;;;;;21.16;56.02;93497.53;2071724;69;20148;-76
2021/08/14 06:00:54;;;;;;;20.20;7.22;;;;;;;21.34;53.90;93506.03;2071672;69;20168;-76
2021/08/14 06:03:19;;;;;;;18.27;7.07;;;;;;;21.31;55.83;93499.53;2071593;69;20151;-76
2021/08/14 06:05:45;;;;;;;19.00;7.40;;;;;;;21.38;56.14;93494.72;2071497;69;20225;-76
2021/08/14 06:08:11;;;;;;;21.23;7.25;;;;;;;21.31;56.49;93511.00;2070970;69;20552;-76
2021/08/14 06:10:37;;;;;;;18.88;6.80;;;;;;;21.41;56.32;93499.88;2071109;69;20689;-75
2021/08/14 06:13:02;;;;;;;20.98;6.70;;;;;;;21.34;56.47;93501.06;2073072;69;20148;-76
2021/08/14 06:15:28;;;;;;;22.35;7.03;;;;;;;21.43;56.59;93499.19;2071784;69;20152;-76
2021/08/14 06:17:54;;;;;;;17.30;6.50;;;;;;;21.33;56.89;93496.72;2073920;69;20176;-76
2021/08/14 06:20:21;;;;;;;21.95;6.65;;;;;;;21.57;53.35;93505.38;2071511;69;20202;-76
2021/08/14 06:22:47;;;;;;;20.75;7.22;;;;;;;21.60;53.89;93494.72;2074111;69;20147;-76
2021/08/14 06:25:15;;;;;;;18.40;7.15;;;;;;;21.40;54.30;93504.13;2071318;69;20156;-77
2021/08/14 06:27:40;;;;;;;15.82;7.00;;;;;;;21.49;55.99;93503.00;2071299;69;20152;-76
2021/08/14 06:30:08;;;;;;;16.33;6.68;;;;;;;21.34;57.64;93500.31;2071475;69;20160;-76
2021/08/14 06:32:34;;;;;;;16.90;6.80;;;;;;;21.44;55.97;93498.53;2071596;69;20148;-77
2021/08/14 06:35:00;;;;;;;16.10;6.93;;;;;;;21.37;57.42;93494.00;2071141;69;20662;-78
2021/08/14 06:37:25;;;;;;;18.05;6.85;;;;;;;21.63;54.78;93491.28;2071528;69;20200;-78
2021/08/14 06:39:51;;;;;;;18.30;7.20;;;;;;;21.77;53.70;93488.88;2071983;69;20239;-76
2021/08/14 06:42:16;;;;;;;16.80;6.70;;;;;;;21.85;54.47;93487.63;2071820;69;20512;-77
2021/08/14 06:44:42;;;;;;;13.15;6.88;;;;;;;21.90;54.28;93492.84;2072062;69;20148;-77
2021/08/14 06:47:08;;;;;;;16.33;6.88;;;;;;;22.04;54.86;93486.81;2071724;69;20143;-77
2021/08/14 06:49:33;;;;;;;19.52;7.13;;;;;;;22.22;52.91;93484.53;2071961;69;20140;-78
2021/08/14 06:51:59;;;;;;;15.35;6.68;;;;;;;22.21;54.26;93488.06;2072195;69;20132;-77
2021/08/14 06:54:25;;;;;;;23.27;7.03;;;;;;;22.16;54.12;93489.34;2071568;69;20187;-76
2021/08/14 06:56:50;;;;;;;18.05;6.15;;;;;;;22.47;53.51;93490.97;2071267;69;20228;-77
2021/08/14 06:59:16;;;;;;;15.57;6.90;;;;;;;22.55;56.58;93499.81;2071956;69;20522;-76
2021/08/14 07:01:41;;;;;;;15.27;5.90;;;;;;;22.69;54.73;93490.88;2071344;69;20148;-75
2021/08/14 07:04:07;;;;;;;16.55;6.75;;;;;;;22.52;53.54;93486.81;2070506;69;20172;-75
2021/08/14 07:06:32;;;;;;;13.40;6.25;;;;;;;22.73;53.00;93488.13;2070864;69;20160;-74
2021/08/14 07:08:58;;;;;;;14.95;6.43;;;;;;;23.03;51.63;93488.97;2071924;69;20148;-75
2021/08/14 07:11:24;;;;;;;18.95;6.72;;;;;;;23.23;51.72;93479.44;2071358;69;20198;-75
2021/08/14 07:13:50;;;;;;;18.80;6.72;;;;;;;23.55;53.92;93488.16;2072038;69;20155;-72
2021/08/14 07:16:17;;;;;;;19.05;7.00;;;;;;;23.81;53.60;93485.94;2072031;69;20166;-73
2021/08/14 07:18:42;;;;;;;18.48;6.90;;;;;;;24.06;54.24;93483.66;2071866;69;20141;-75
2021/08/14 07:21:09;;;;;;;15.80;6.30;;;;;;;24.35;52.95;93493.63;2071742;69;20159;-74
2021/08/14 07:23:35;;;;;;;18.42;6.30;;;;;;;24.55;53.23;93484.72;2071544;69;20143;-73
2021/08/14 07:26:01;;;;;;;24.73;7.43;;;;;;;24.74;49.09;93491.59;2070810;69;20148;-74
2021/08/14 07:28:27;;;;;;;19.40;7.10;;;;;;;24.23;51.51;93476.09;2070677;69;20147;-75
2021/08/14 07:30:53;;;;;;;17.23;7.18;;;;;;;24.99;48.63;93476.25;2071977;69;20669;-75
2021/08/14 07:33:19;;;;;;;17.63;7.15;;;;;;;25.22;48.90;93474.56;2071496;69;20217;-75
2021/08/14 07:35:45;;;;;;;13.23;6.53;;;;;;;25.53;49.16;93467.19;2071687;69;20167;-75
2021/08/14 07:38:11;;;;;;;15.77;6.72;;;;;;;25.76;50.65;93473.34;2071066;69;20190;-76
2021/08/14 07:40:37;;;;;;;18.48;6.63;;;;;;;26.05;49.62;93475.25;2070941;69;20621;-77
2021/08/14 07:43:03;;;;;;;20.42;6.57;;;;;;;26.16;47.31;93461.72;2071161;69;20251;-75
2021/08/14 07:45:29;;;;;;;19.20;7.10;;;;;;;26.43;46.39;93477.25;2071785;69;20282;-75
2021/08/14 07:47:55;;;;;;;20.08;7.25;;;;;;;26.30;46.32;93470.56;2071810;69;20148;-75
2021/08/14 07:50:25;;;;;;;15.77;5.95;;;;;;;26.52;45.98;93455.00;2071589;69;20230;-77
2021/08/14 07:52:51;;;;;;;18.27;6.57;;;;;;;26.89;47.05;93464.09;2071741;69;20564;-76
2021/08/14 07:55:18;;;;;;;17.23;5.78;;;;;;;26.73;44.93;93464.66;2071827;69;20155;-76
2021/08/14 07:57:44;;;;;;;18.67;6.68;;;;;;;26.88;44.00;93463.38;2071867;69;20230;-76
2021/08/14 08:00:13;;;;;;;19.95;6.72;;;;;;;27.04;43.62;93460.69;2071996;69;20164;-75
2021/08/14 08:02:39;;;;;;;18.08;7.07;;;;;;;26.60;44.11;93457.97;2071878;69;20140;-74
2021/08/14 08:05:06;;;;;;;15.32;6.32;;;;;;;27.38;45.10;93445.16;2071787;69;20148;-75
2021/08/14 08:07:32;;;;;;;16.25;6.25;;;;;;;27.65;45.57;93448.28;2071844;69;20231;-75
2021/08/14 08:09:59;;;;;;;16.52;6.80;;;;;;;27.52;41.31;93442.38;2071836;69;20266;-76
2021/08/14 08:12:24;;;;;;;19.42;7.32;;;;;;;27.52;41.24;93442.38;2071796;69;20176;-76
2021/08/14 08:14:50;;;;;;;18.17;6.60;;;;;;;27.60;41.37;93444.63;2071787;69;20147;-75
2021/08/14 08:17:16;;;;;;;17.88;6.50;;;;;;;28.22;41.73;93437.16;2071920;69;20224;-74
2021/08/14 08:19:42;;;;;;;16.38;5.55;;;;;;;28.51;44.26;93435.19;2071534;69;20151;-77
2021/08/14 08:22:07;;;;;;;18.52;6.55;;;;;;;28.69;42.42;93432.38;2071889;69;20685;-76
2021/08/14 08:24:33;;;;;;;20.45;7.15;;;;;;;28.31;39.89;93427.78;2071907;69;20144;-76
2021/08/14 08:26:59;;;;;;;19.33;7.10;;;;;;;28.31;38.17;93430.69;2071942;69;20144;-75
2021/08/14 08:29:24;;;;;;;20.38;6.55;;;;;;;28.96;40.03;93426.69;2071789;69;20164;-75
2021/08/14 08:31:50;;;;;;;19.33;6.60;;;;;;;29.47;40.71;93426.81;2071721;69;20152;-75
2021/08/14 08:34:16;;;;;;;15.48;6.32;;;;;;;29.70;40.44;93422.50;2071199;69;20144;-74
2021/08/14 08:36:42;;;;;;;17.30;6.90;;;;;;;29.69;39.85;93418.16;2071824;69;20136;-75
2021/08/14 08:39:07;;;;;;;18.75;6.50;;;;;;;31.81;35.99;93422.50;2071955;69;20233;-75
2021/08/14 08:41:33;;;;;;;22.30;6.15;;;;;;;30.55;37.28;93415.13;2071887;69;20151;-76
2021/08/14 08:43:59;;;;;;;20.92;6.55;;;;;;;30.45;37.44;93412.97;2071775;69;20148;-76
2021/08/14 08:46:27;;;;;;;14.20;6.05;;;;;;;30.90;37.61;93417.94;2071424;69;20194;-77
2021/08/14 08:48:53;;;;;;;16.80;6.38;;;;;;;31.30;36.97;93414.84;2070759;69;20178;-78
2021/08/14 08:51:24;;;;;;;16.00;6.13;;;;;;;31.30;35.26;93403.22;2070287;69;20239;-76
2021/08/14 08:53:51;;;;;;;17.33;6.37;;;;;;;32.53;34.64;93405.09;2070132;69;20166;-76
2021/08/14 08:56:17;;;;;;;18.83;6.75;;;;;;;30.95;35.91;93405.56;2067877;69;20151;-76
2021/08/14 08:58:42;;;;;;;18.25;6.13;;;;;;;31.94;35.97;93397.66;2070542;69;20164;-75
2021/08/14 09:01:08;;;;;;;19.23;6.88;;;;;;;32.11;35.82;93398.22;2071627;69;20148;-76
2021/08/14 09:03:34;;;;;;;15.82;6.10;;;;;;;32.71;34.58;93396.16;2071484;69;20315;-75
2021/08/14 09:06:00;;;;;;;17.15;5.93;;;;;;;33.74;32.69;93389.69;2071577;69;20277;-75
2021/08/14 09:08:26;;;;;;;23.27;6.32;;;;;;;32.40;33.57;93398.00;2071579;69;20156;-76
2021/08/14 09:11:09;;;;;;;16.77;5.93;;;;;;;32.30;29.94;93382.03;2068430;69;20222;-76
2021/08/14 09:13:35;;;;;;;20.05;6.20;;;;;;;32.41;33.75;93381.94;2071620;69;20152;-78
2021/08/14 09:16:23;;;;;;;20.98;6.00;;;;;;;31.80;30.22;93380.31;2070803;69;20167;-76
2021/08/14 09:18:58;;;;;;;14.75;5.60;;;;;;;32.52;32.24;93380.34;2070489;69;20198;-77
2021/08/14 09:21:40;;;;;;;18.63;5.65;;;;;;;33.17;33.53;93378.84;2069671;69;20643;-77
2021/08/14 09:24:08;;;;;;;16.40;5.97;;;;;;;32.50;31.41;93380.38;2071515;69;20152;-73
2021/08/14 09:26:46;;;;;;;13.50;5.40;;;;;;;31.96;31.77;93365.63;2070129;69;20207;-72
2021/08/14 09:29:12;;;;;;;21.77;5.97;;;;;;;32.51;32.04;93370.91;2066787;69;20627;-74
2021/08/14 09:31:52;;;;;;;15.10;5.93;;;;;;;32.62;31.47;93366.41;2071304;69;20235;-74
2021/08/14 09:34:20;;;;;;;17.60;5.60;;;;;;;32.92;31.86;93352.94;2071131;69;20144;-74
2021/08/14 09:37:02;;;;;;;20.73;5.75;;;;;;;33.29;31.14;93358.25;2070209;69;20237;-72
2021/08/14 09:39:29;;;;;;;14.40;5.97;;;;;;;33.30;30.44;93354.56;2068334;69;20155;-73
2021/08/14 09:42:08;;;;;;;21.88;5.30;;;;;;;33.32;31.56;93342.88;2068498;69;20656;-73
2021/08/14 09:44:35;;;;;;;20.05;5.65;;;;;;;33.51;32.13;93352.09;2071688;69;20172;-73
2021/08/14 09:47:08;;;;;;;16.67;5.90;;;;;;;34.16;31.92;93338.63;2071568;69;20151;-73
2021/08/14 09:49:50;;;;;;;19.15;6.05;;;;;;;34.61;32.15;93332.66;2071446;69;20164;-72
2021/08/14 09:52:21;;;;;;;17.77;5.50;;;;;;;34.79;31.32;93322.06;2071587;69;20236;-73
2021/08/14 09:54:46;;;;;;;18.90;5.25;;;;;;;35.18;31.57;93330.00;2071650;69;20183;-74
2021/08/14 09:57:14;;;;;;;20.05;5.90;;;;;;;33.66;31.52;93316.84;2071353;69;20529;-74
2021/08/14 09:59:43;;;;;;;16.17;5.93;;;;;;;34.54;32.87;93313.78;2071530;69;20152;-74
2021/08/14 10:02:20;;;;;;;19.00;5.43;;;;;;;34.66;29.27;93312.09;2069572;69;20159;-73
2021/08/14 10:04:48;;;;;;;18.20;5.80;;;;;;;34.42;30.02;93319.88;2071315;69;20147;-75
2021/08/14 10:07:15;;;;;;;19.67;5.72;;;;;;;34.73;30.70;93307.56;2071032;69;20152;-76
2021/08/14 10:09:43;;;;;;;15.50;5.60;;;;;;;34.70;28.48;93303.97;2069927;69;20164;-74
2021/08/14 10:12:10;;;;;;;20.63;5.57;;;;;;;35.03;29.89;93297.44;2070199;69;20617;-75
2021/08/14 10:14:38;;;;;;;18.77;5.35;;;;;;;35.97;28.71;93290.09;2070970;69;20541;-74
2021/08/14 10:17:04;;;;;;;17.25;5.47;;;;;;;36.12;28.18;93291.13;2071187;69;20601;-75
2021/08/14 10:19:30;;;;;;;16.50;5.80;;;;;;;36.27;27.03;93288.53;2067122;69;20140;-75
2021/08/14 10:21:56;;;;;;;13.05;5.63;;;;;;;36.62;28.28;93281.72;2071109;69;20170;-75
2021/08/14 10:24:22;;;;;;;21.63;5.85;;;;;;;35.48;28.46;93281.78;2071558;69;20160;-75
2021/08/14 10:26:48;;;;;;;21.35;6.03;;;;;;;36.59;28.02;93275.19;2071650;69;20176;-75
2021/08/14 10:29:16;;;;;;;15.27;5.88;;;;;;;36.87;27.80;93270.69;2071658;69;20156;-75
2021/08/14 10:31:45;;;;;;;17.05;5.20;;;;;;;37.41;27.24;93263.25;2071465;69;20171;-76
2021/08/14 10:34:10;;;;;;;19.13;5.60;;;;;;;37.99;27.74;93268.69;2071408;69;20144;-75
2021/08/14 10:36:37;;;;;;;15.45;5.82;;;;;;;37.38;25.76;93257.41;2071536;69;20492;-75
2021/08/14 10:39:26;;;;;;;14.05;5.50;;;;;;;38.24;26.20;93262.66;2071499;69;20622;-76
2021/08/14 10:41:55;;;;;;;19.55;5.90;;;;;;;37.39;26.50;93255.22;2071458;69;20582;-76
2021/08/14 10:44:38;;;;;;;17.80;5.45;;;;;;;37.76;25.21;93254.72;2071519;69;20147;-73
2021/08/14 10:47:05;;;;;;;18.50;5.57;;;;;;;38.20;26.36;93254.69;2071487;69;20585;-74
2021/08/14 10:49:31;;;;;;;18.85;5.50;;;;;;;39.05;24.49;93244.25;2071514;69;20241;-75
2021/08/14 10:51:56;;;;;;;14.32;5.25;;;;;;;38.45;24.18;93245.75;2071503;69;20618;-73
2021/08/14 10:54:28;;;;;;;15.93;5.25;;;;;;;38.12;25.89;93237.34;2071536;69;20231;-74
2021/08/14 10:56:54;;;;;;;;;;;;;;;39.88;24.10;93240.16;2071717;69;20191;-74
2021/08/14 10:59:38;;;;;;;14.43;5.15;;;;;;;40.83;23.21;93243.41;2071518;69;20044;-72
2021/08/14 11:02:10;;;;;;;17.38;5.00;;;;;;;41.04;22.12;93237.97;2071411;69;20595;-74
2021/08/14 11:04:36;;;;;;;;;;;;;;;41.34;21.08;93232.88;2071603;69;20244;-75
2021/08/14 11:07:20;;;;;;;17.52;5.13;;;;;;;44.03;20.41;93232.66;2071536;69;20127;-75
2021/08/14 11:09:52;;;;;;;15.65;5.22;;;;;;;43.75;19.01;93226.13;2070975;69;20140;-75
2021/08/14 11:12:42;;;;;;;13.13;4.88;;;;;;;44.34;19.28;93221.97;2064987;69;20132;-75
2021/08/14 11:15:25;;;;;;;14.65;5.40;;;;;;;46.12;17.26;93218.06;2071095;69;20160;-75
2021/08/14 11:17:57;;;;;;;17.75;5.10;;;;;;;46.28;17.32;93210.31;2071275;69;20155;-75
2021/08/14 11:20:22;;;;;;;19.52;5.13;;;;;;;46.94;16.38;93199.84;2071167;69;20144;-75
2021/08/14 11:22:56;;;;;;;17.27;5.07;;;;;;;46.45;18.06;93200.97;2071319;69;20140;-75
2021/08/14 11:25:30;;;;;;;16.58;4.93;;;;;;;48.28;16.58;93192.91;2071685;69;20152;-75